createdAt,value
2023-05-07T00:01:00.723Z,9.04
2023-05-07T00:03:29.038Z,9.01
2023-05-07T00:05:57.340Z,8.99
2023-05-07T00:08:25.428Z,8.97
2023-05-07T00:10:54.021Z,8.99
2023-05-07T00:13:22.117Z,9.00
2023-05-07T00:15:50.276Z,9.00
2023-05-07T00:18:22.077Z,9.01
2023-05-07T00:20:49.965Z,9.00
2023-05-07T00:23:17.994Z,8.97
2023-05-07T00:25:45.990Z,8.94
2023-05-07T00:28:14.003Z,8.92
2023-05-07T00:30:42.024Z,8.91
2023-05-07T00:33:10.238Z,8.91
2023-05-07T00:35:38.248Z,8.89
2023-05-07T00:38:06.296Z,8.89
2023-05-07T00:40:34.427Z,8.86
2023-05-07T00:43:02.332Z,8.83
2023-05-07T00:45:30.549Z,8.82
2023-05-07T00:48:01.648Z,8.82
2023-05-07T00:50:31.098Z,8.81
2023-05-07T00:52:59.650Z,8.83
2023-05-07T00:55:27.758Z,8.86
2023-05-07T00:57:55.824Z,8.84
2023-05-07T01:00:23.826Z,8.83
2023-05-07T01:02:51.899Z,8.83
2023-05-07T01:05:22.188Z,8.84
2023-05-07T01:07:52.257Z,8.84
2023-05-07T01:10:20.370Z,8.88
2023-05-07T01:12:49.734Z,8.86
2023-05-07T01:15:18.825Z,8.83
2023-05-07T01:17:47.916Z,8.81
2023-05-07T01:20:31.127Z,8.84
2023-05-07T01:23:01.179Z,8.85
2023-05-07T01:25:29.867Z,8.83
2023-05-07T01:28:03.537Z,8.82
2023-05-07T01:30:35.767Z,8.82
2023-05-07T01:33:14.538Z,8.81
2023-05-07T01:35:46.559Z,8.79
2023-05-07T01:38:14.981Z,8.78
2023-05-07T01:40:43.801Z,8.77
2023-05-07T01:43:12.351Z,8.74
2023-05-07T01:45:41.705Z,8.72
2023-05-07T01:48:12.494Z,8.72
2023-05-07T01:50:40.583Z,8.72
2023-05-07T01:53:08.682Z,8.71
2023-05-07T01:55:37.944Z,8.71
2023-05-07T01:58:06.225Z,8.71
2023-05-07T02:00:34.620Z,8.74
2023-05-07T02:03:02.904Z,8.76
2023-05-07T02:05:44.052Z,8.75
2023-05-07T02:08:19.083Z,8.75
2023-05-07T02:10:47.078Z,8.69
2023-05-07T02:13:15.034Z,8.66
2023-05-07T02:15:43.213Z,8.65
2023-05-07T02:18:11.454Z,8.64
2023-05-07T02:20:39.488Z,8.62
2023-05-07T02:23:07.631Z,8.62
2023-05-07T02:25:35.666Z,8.63
2023-05-07T02:28:03.665Z,8.62
2023-05-07T02:30:41.368Z,8.62
2023-05-07T02:33:10.222Z,8.64
2023-05-07T02:35:38.301Z,8.64
2023-05-07T02:38:06.727Z,8.63
2023-05-07T02:40:35.115Z,8.65
2023-05-07T02:43:03.067Z,8.68
2023-05-07T02:45:31.136Z,8.69
2023-05-07T02:47:59.418Z,8.67
2023-05-07T02:50:28.163Z,8.66
2023-05-07T02:52:56.345Z,8.64
2023-05-07T02:55:24.380Z,8.62
2023-05-07T02:57:52.355Z,8.62
2023-05-07T03:00:21.855Z,8.63
2023-05-07T03:03:13.308Z,8.64
2023-05-07T03:05:41.742Z,8.66
2023-05-07T03:08:10.543Z,8.66
2023-05-07T03:10:38.626Z,8.66
2023-05-07T03:13:06.844Z,8.64
2023-05-07T03:15:34.967Z,8.62
2023-05-07T03:18:03.130Z,8.62
2023-05-07T03:20:31.395Z,8.63
2023-05-07T03:22:59.698Z,8.64
2023-05-07T03:25:27.619Z,8.65
2023-05-07T03:27:55.552Z,8.67
2023-05-07T03:30:25.528Z,8.70
2023-05-07T03:32:53.525Z,8.72
2023-05-07T03:35:21.579Z,8.73
2023-05-07T03:37:49.640Z,8.76
2023-05-07T03:40:17.843Z,8.79
2023-05-07T03:42:49.473Z,8.82
2023-05-07T03:45:17.979Z,8.82
2023-05-07T03:47:48.938Z,8.82
2023-05-07T03:50:20.740Z,8.80
2023-05-07T03:52:48.647Z,8.77
2023-05-07T03:55:16.989Z,8.76
2023-05-07T03:57:49.430Z,8.75
2023-05-07T04:00:17.767Z,8.75
2023-05-07T04:02:48.599Z,8.77
2023-05-07T04:05:19.323Z,8.77
2023-05-07T04:07:48.447Z,8.78
2023-05-07T04:10:17.510Z,8.78
2023-05-07T04:12:46.304Z,8.78
2023-05-07T04:15:18.445Z,8.77
2023-05-07T04:17:46.864Z,8.76
2023-05-07T04:20:17.948Z,8.75
2023-05-07T04:22:48.015Z,8.76
2023-05-07T04:25:17.436Z,8.75
2023-05-07T04:27:46.353Z,8.72
2023-05-07T04:30:14.877Z,8.71
2023-05-07T04:32:43.091Z,8.72
2023-05-07T04:35:11.201Z,8.70
2023-05-07T04:37:40.062Z,8.71
2023-05-07T04:40:08.934Z,8.69
2023-05-07T04:42:37.073Z,8.70
2023-05-07T04:45:06.264Z,8.70
2023-05-07T04:47:35.350Z,8.69
2023-05-07T04:50:03.983Z,8.67
2023-05-07T04:52:32.395Z,8.65
2023-05-07T04:55:01.662Z,8.66
2023-05-07T04:57:31.993Z,8.67
2023-05-07T04:59:59.949Z,8.68
2023-05-07T05:02:28.041Z,8.73
2023-05-07T05:04:56.213Z,8.77
2023-05-07T05:07:24.858Z,8.77
2023-05-07T05:09:53.820Z,8.76
2023-05-07T05:12:21.831Z,8.76
2023-05-07T05:14:50.729Z,8.75
2023-05-07T05:17:19.147Z,8.75
2023-05-07T05:19:47.785Z,8.75
2023-05-07T05:22:16.301Z,8.73
2023-05-07T05:24:44.307Z,8.72
2023-05-07T05:27:12.240Z,8.71
2023-05-07T05:29:40.298Z,8.71
2023-05-07T05:32:08.599Z,8.71
2023-05-07T05:34:36.645Z,8.71
2023-05-07T05:37:05.098Z,8.68
2023-05-07T05:39:33.151Z,8.66
2023-05-07T05:42:01.204Z,8.65
2023-05-07T05:44:29.304Z,8.64
2023-05-07T05:47:00.286Z,8.63
2023-05-07T05:49:28.798Z,8.63
2023-05-07T05:51:57.032Z,8.66
2023-05-07T05:54:26.411Z,8.68
2023-05-07T05:56:54.370Z,8.68
2023-05-07T05:59:22.500Z,8.70
2023-05-07T06:01:50.658Z,8.70
2023-05-07T06:04:18.567Z,8.67
2023-05-07T06:06:46.556Z,8.69
2023-05-07T06:09:14.596Z,8.71
2023-05-07T06:11:44.429Z,8.72
2023-05-07T06:14:13.083Z,8.72
2023-05-07T06:16:41.240Z,8.73
2023-05-07T06:19:09.537Z,8.75
2023-05-07T06:21:40.319Z,8.78
2023-05-07T06:24:08.737Z,8.80
2023-05-07T06:26:38.834Z,8.81
2023-05-07T06:29:07.320Z,8.78
2023-05-07T06:31:35.921Z,8.74
2023-05-07T06:34:06.590Z,8.75
2023-05-07T06:36:39.246Z,8.76
2023-05-07T06:39:27.430Z,8.77
2023-05-07T06:41:55.803Z,8.78
2023-05-07T06:44:27.615Z,8.81
2023-05-07T06:47:06.449Z,8.80
2023-05-07T06:49:35.422Z,8.80
2023-05-07T06:52:03.403Z,8.86
2023-05-07T06:54:32.066Z,8.93
2023-05-07T06:57:00.092Z,8.98
2023-05-07T06:59:28.689Z,9.04
2023-05-07T07:01:56.851Z,9.12
2023-05-07T07:04:26.342Z,9.20
2023-05-07T07:07:01.147Z,9.25
2023-05-07T07:09:30.102Z,9.30
2023-05-07T07:11:58.973Z,9.40
2023-05-07T07:14:27.207Z,9.51
2023-05-07T07:16:55.509Z,9.59
2023-05-07T07:19:23.718Z,9.62
2023-05-07T07:21:53.280Z,9.71
2023-05-07T07:24:22.496Z,9.78
2023-05-07T07:26:56.406Z,9.89
2023-05-07T07:29:27.643Z,10.02
2023-05-07T07:31:55.858Z,10.18
2023-05-07T07:34:24.094Z,10.34
2023-05-07T07:36:52.505Z,10.48
2023-05-07T07:39:20.714Z,10.60
2023-05-07T07:41:51.384Z,10.63
2023-05-07T07:44:19.865Z,10.65
2023-05-07T07:46:51.865Z,10.67
2023-05-07T07:49:20.430Z,10.69
2023-05-07T07:51:48.930Z,10.71
2023-05-07T07:54:17.924Z,10.61
2023-05-07T07:56:46.305Z,10.53
2023-05-07T07:59:18.716Z,10.52
2023-05-07T08:01:47.108Z,10.50
2023-05-07T08:04:15.917Z,10.48
2023-05-07T08:06:44.354Z,10.47
2023-05-07T08:09:12.693Z,10.44
2023-05-07T08:11:41.959Z,10.40
2023-05-07T08:14:10.586Z,10.33
2023-05-07T08:16:38.736Z,10.33
2023-05-07T08:19:06.696Z,10.50
2023-05-07T08:21:35.892Z,10.73
2023-05-07T08:24:04.496Z,10.94
2023-05-07T08:26:32.411Z,11.12
2023-05-07T08:29:00.408Z,11.29
2023-05-07T08:31:28.340Z,11.40
2023-05-07T08:33:57.046Z,11.41
2023-05-07T08:36:25.565Z,11.43
2023-05-07T08:38:53.945Z,11.50
2023-05-07T08:41:22.788Z,11.62
2023-05-07T08:43:51.966Z,11.70
2023-05-07T08:46:21.920Z,11.87
2023-05-07T08:48:51.046Z,12.04
2023-05-07T08:51:21.320Z,12.18
2023-05-07T08:53:51.062Z,12.36
2023-05-07T08:56:24.813Z,12.53
2023-05-07T08:58:57.542Z,12.72
2023-05-07T09:01:26.462Z,12.84
2023-05-07T09:03:54.976Z,12.92
2023-05-07T09:06:23.746Z,13.01
2023-05-07T09:08:54.679Z,13.08
2023-05-07T09:11:26.338Z,13.13
2023-05-07T09:13:57.163Z,13.10
2023-05-07T09:16:26.570Z,13.09
2023-05-07T09:18:55.776Z,12.98
2023-05-07T09:21:24.169Z,12.80
2023-05-07T09:23:56.256Z,12.63
2023-05-07T09:26:29.356Z,12.47
2023-05-07T09:28:57.547Z,12.33
2023-05-07T09:31:26.187Z,12.18
2023-05-07T09:33:56.970Z,11.97
2023-05-07T09:36:26.250Z,11.85
2023-05-07T09:38:54.441Z,11.77
2023-05-07T09:41:22.469Z,11.70
2023-05-07T09:43:57.363Z,11.60
2023-05-07T09:46:34.553Z,11.52
2023-05-07T09:49:11.251Z,11.51
2023-05-07T09:51:49.215Z,11.52
2023-05-07T09:54:19.309Z,11.52
2023-05-07T09:56:50.151Z,11.56
2023-05-07T09:59:19.728Z,11.65
2023-05-07T10:01:49.448Z,11.72
2023-05-07T10:04:18.617Z,11.70
2023-05-07T10:06:47.740Z,11.64
2023-05-07T10:09:16.350Z,11.55
2023-05-07T10:11:44.815Z,11.54
2023-05-07T10:14:13.364Z,11.56
2023-05-07T10:16:42.489Z,11.57
2023-05-07T10:19:13.708Z,11.58
2023-05-07T10:21:58.023Z,11.50
2023-05-07T10:24:30.155Z,11.38
2023-05-07T10:27:00.501Z,11.32
2023-05-07T10:29:28.518Z,11.31
2023-05-07T10:32:11.358Z,11.31
2023-05-07T10:34:43.054Z,11.33
2023-05-07T10:37:12.120Z,11.31
2023-05-07T10:39:40.313Z,11.28
2023-05-07T10:42:12.074Z,11.24
2023-05-07T10:44:41.707Z,11.18
2023-05-07T10:47:19.738Z,11.14
2023-05-07T10:49:49.863Z,11.15
2023-05-07T10:52:25.583Z,11.20
2023-05-07T10:55:19.995Z,11.25
2023-05-07T10:58:32.528Z,11.25
2023-05-07T11:01:55.353Z,11.24
2023-05-07T11:04:39.779Z,11.27
2023-05-07T11:07:29.233Z,11.29
2023-05-07T11:10:05.843Z,11.30
2023-05-07T11:12:57.162Z,11.26
2023-05-07T11:15:39.022Z,11.26
2023-05-07T11:18:14.770Z,11.28
2023-05-07T11:20:45.941Z,11.29
2023-05-07T11:23:35.342Z,11.30
2023-05-07T11:26:19.269Z,11.38
2023-05-07T11:28:47.979Z,11.52
2023-05-07T11:31:24.002Z,11.70
2023-05-07T11:33:54.152Z,11.82
2023-05-07T11:36:24.289Z,11.94
2023-05-07T11:38:54.195Z,12.12
2023-05-07T11:41:23.072Z,12.26
2023-05-07T11:43:58.491Z,12.37
2023-05-07T11:46:28.494Z,12.40
2023-05-07T11:48:57.754Z,12.43
2023-05-07T11:51:27.292Z,12.41
2023-05-07T11:53:55.332Z,12.36
2023-05-07T11:56:23.298Z,12.28
2023-05-07T11:58:53.051Z,12.34
2023-05-07T12:01:21.117Z,12.51
2023-05-07T12:03:49.148Z,12.66
2023-05-07T12:06:18.902Z,12.77
2023-05-07T12:08:48.361Z,12.83
2023-05-07T12:11:22.802Z,12.81
2023-05-07T12:13:50.892Z,12.77
2023-05-07T12:16:20.080Z,12.71
2023-05-07T12:18:48.788Z,12.67
2023-05-07T12:21:18.452Z,12.63
2023-05-07T12:23:46.674Z,12.60
2023-05-07T12:26:14.560Z,12.62
2023-05-07T12:28:42.527Z,12.69
2023-05-07T12:31:10.588Z,12.74
2023-05-07T12:33:38.641Z,12.69
2023-05-07T12:36:08.663Z,12.63
2023-05-07T12:38:40.983Z,12.60
2023-05-07T12:41:11.179Z,12.57
2023-05-07T12:43:39.749Z,12.51
2023-05-07T12:46:09.064Z,12.42
2023-05-07T12:48:44.309Z,12.40
2023-05-07T12:51:14.521Z,12.36
2023-05-07T12:53:43.809Z,12.32
2023-05-07T12:56:11.849Z,12.33
2023-05-07T12:58:39.832Z,12.39
2023-05-07T13:01:10.788Z,12.39
2023-05-07T13:03:39.855Z,12.38
2023-05-07T13:06:11.587Z,12.46
2023-05-07T13:08:44.340Z,12.45
2023-05-07T13:11:13.619Z,12.46
2023-05-07T13:13:42.177Z,12.45
2023-05-07T13:16:12.352Z,12.50
2023-05-07T13:18:41.959Z,12.59
2023-05-07T13:21:11.129Z,12.69
2023-05-07T13:23:39.723Z,12.70
2023-05-07T13:26:22.489Z,12.63
2023-05-07T13:28:55.490Z,12.50
2023-05-07T13:31:23.738Z,12.44
2023-05-07T13:33:51.813Z,12.39
2023-05-07T13:36:19.801Z,12.37
2023-05-07T13:38:47.726Z,12.32
2023-05-07T13:41:15.881Z,12.22
2023-05-07T13:43:43.891Z,12.11
2023-05-07T13:46:12.400Z,12.00
2023-05-07T13:48:40.570Z,11.92
2023-05-07T13:51:08.570Z,11.90
2023-05-07T13:53:36.662Z,11.93
2023-05-07T13:56:05.672Z,11.96
2023-05-07T13:58:33.980Z,11.98
2023-05-07T14:01:02.040Z,12.00
2023-05-07T14:03:32.886Z,11.97
2023-05-07T14:06:02.511Z,11.92
2023-05-07T14:08:31.885Z,11.85
2023-05-07T14:11:01.078Z,11.74
2023-05-07T14:13:29.103Z,11.66
2023-05-07T14:15:57.438Z,11.64
2023-05-07T14:18:25.745Z,11.66
2023-05-07T14:20:53.836Z,11.69
2023-05-07T14:23:26.606Z,11.72
2023-05-07T14:25:54.681Z,11.67
2023-05-07T14:28:22.750Z,11.65
2023-05-07T14:30:50.946Z,11.60
2023-05-07T14:33:19.018Z,11.50
2023-05-07T14:35:49.849Z,11.42
2023-05-07T14:38:17.937Z,11.38
2023-05-07T14:40:45.954Z,11.38
2023-05-07T14:43:13.904Z,11.40
2023-05-07T14:45:42.064Z,11.45
2023-05-07T14:48:13.506Z,11.53
2023-05-07T14:50:43.979Z,11.61
2023-05-07T14:53:11.899Z,11.62
2023-05-07T14:55:39.923Z,11.56
2023-05-07T14:58:07.988Z,11.50
2023-05-07T15:00:36.081Z,11.51
2023-05-07T15:03:09.306Z,11.50
2023-05-07T15:05:38.692Z,11.50
2023-05-07T15:08:07.057Z,11.52
2023-05-07T15:10:42.036Z,11.54
2023-05-07T15:13:15.337Z,11.56
2023-05-07T15:15:45.402Z,11.53
2023-05-07T15:18:13.311Z,11.45
2023-05-07T15:20:42.329Z,11.39
2023-05-07T15:23:15.039Z,11.32
2023-05-07T15:25:44.999Z,11.25
2023-05-07T15:28:12.907Z,11.19
2023-05-07T15:30:40.917Z,11.17
2023-05-07T15:33:08.854Z,11.20
2023-05-07T15:35:36.875Z,11.26
2023-05-07T15:38:06.460Z,11.31
2023-05-07T15:40:36.387Z,11.34
2023-05-07T15:43:04.599Z,11.36
2023-05-07T15:45:32.783Z,11.37
2023-05-07T15:48:00.724Z,11.35
2023-05-07T15:50:29.661Z,11.34
2023-05-07T15:52:58.340Z,11.25
2023-05-07T15:55:26.301Z,11.15
2023-05-07T15:57:55.177Z,11.09
2023-05-07T16:00:23.320Z,11.04
2023-05-07T16:02:51.685Z,10.99
2023-05-07T16:05:19.919Z,10.97
2023-05-07T16:07:48.662Z,10.92
2023-05-07T16:10:16.779Z,10.88
2023-05-07T16:12:44.789Z,10.86
2023-05-07T16:15:13.044Z,10.85
2023-05-07T16:17:41.421Z,10.84
2023-05-07T16:20:12.094Z,10.83
2023-05-07T16:22:39.994Z,10.78
2023-05-07T16:25:08.463Z,10.77
2023-05-07T16:27:36.404Z,10.81
2023-05-07T16:30:04.742Z,10.81
2023-05-07T16:32:32.819Z,10.83
2023-05-07T16:35:00.771Z,10.83
2023-05-07T16:37:29.166Z,10.80
2023-05-07T16:39:57.251Z,10.77
2023-05-07T16:42:25.251Z,10.78
2023-05-07T16:44:53.099Z,10.78
2023-05-07T16:47:21.664Z,10.75
2023-05-07T16:49:50.580Z,10.72
2023-05-07T16:52:18.719Z,10.72
2023-05-07T16:54:47.008Z,10.69
2023-05-07T16:57:15.016Z,10.65
2023-05-07T16:59:42.979Z,10.63
2023-05-07T17:02:10.925Z,10.55
2023-05-07T17:04:42.707Z,10.49
2023-05-07T17:07:11.076Z,10.42
2023-05-07T17:09:39.091Z,10.37
2023-05-07T17:12:07.193Z,10.33
2023-05-07T17:14:35.057Z,10.33
2023-05-07T17:17:03.000Z,10.35
2023-05-07T17:19:31.333Z,10.34
2023-05-07T17:21:59.215Z,10.33
2023-05-07T17:24:27.062Z,10.30
2023-05-07T17:26:54.992Z,10.27
2023-05-07T17:29:22.921Z,10.24
2023-05-07T17:31:50.953Z,10.22
2023-05-07T17:34:18.853Z,10.21
2023-05-07T17:36:46.880Z,10.22
2023-05-07T17:39:14.902Z,10.20
2023-05-07T17:41:42.756Z,10.17
2023-05-07T17:44:10.769Z,10.16
2023-05-07T17:46:38.886Z,10.13
2023-05-07T17:49:06.945Z,10.10
2023-05-07T17:51:49.982Z,10.03
2023-05-07T17:54:21.869Z,9.99
2023-05-07T17:56:49.840Z,9.96
2023-05-07T17:59:17.737Z,9.93
2023-05-07T18:01:45.861Z,9.89
2023-05-07T18:04:13.978Z,9.85
2023-05-07T18:06:42.248Z,9.83
2023-05-07T18:09:10.222Z,9.79
2023-05-07T18:11:38.279Z,9.78
2023-05-07T18:14:06.667Z,9.77
2023-05-07T18:16:36.685Z,9.76
2023-05-07T18:19:04.770Z,9.74
2023-05-07T18:21:32.877Z,9.73
2023-05-07T18:24:00.773Z,9.69
2023-05-07T18:26:28.720Z,9.66
2023-05-07T18:28:56.645Z,9.65
2023-05-07T18:31:24.576Z,9.66
2023-05-07T18:33:53.000Z,9.66
2023-05-07T18:36:20.916Z,9.65
2023-05-07T18:38:48.849Z,9.66
2023-05-07T18:41:16.790Z,9.66
2023-05-07T18:43:44.641Z,9.66
2023-05-07T18:46:12.574Z,9.64
2023-05-07T18:48:40.662Z,9.62
2023-05-07T18:51:12.656Z,9.60
2023-05-07T18:53:40.831Z,9.59
2023-05-07T18:56:08.894Z,9.57
2023-05-07T18:58:36.908Z,9.56
2023-05-07T19:01:08.500Z,9.55
2023-05-07T19:03:36.953Z,9.53
2023-05-07T19:06:06.144Z,9.53
2023-05-07T19:08:34.183Z,9.51
2023-05-07T19:11:03.267Z,9.50
2023-05-07T19:13:31.373Z,9.51
2023-05-07T19:15:59.832Z,9.54
2023-05-07T19:18:29.730Z,9.53
2023-05-07T19:20:57.695Z,9.52
2023-05-07T19:23:26.073Z,9.52
2023-05-07T19:25:54.128Z,9.53
2023-05-07T19:28:22.086Z,9.51
2023-05-07T19:30:52.235Z,9.46
2023-05-07T19:33:20.317Z,9.42
2023-05-07T19:35:48.220Z,9.40
2023-05-07T19:38:16.222Z,9.38
2023-05-07T19:40:44.158Z,9.40
2023-05-07T19:43:12.059Z,9.40
2023-05-07T19:45:42.933Z,9.37
2023-05-07T19:48:14.786Z,9.33
2023-05-07T19:50:48.143Z,9.28
2023-05-07T19:53:16.079Z,9.22
2023-05-07T19:55:43.973Z,9.17
2023-05-07T19:58:12.152Z,9.15
2023-05-07T20:00:41.540Z,9.16
2023-05-07T20:03:18.204Z,9.17
2023-05-07T20:05:47.627Z,9.16
2023-05-07T20:08:15.513Z,9.13
2023-05-07T20:10:43.380Z,9.10
2023-05-07T20:13:12.103Z,9.05
2023-05-07T20:15:40.305Z,9.03
2023-05-07T20:18:08.569Z,9.03
2023-05-07T20:20:36.587Z,9.02
2023-05-07T20:23:04.436Z,9.00
2023-05-07T20:25:32.433Z,8.99
2023-05-07T20:28:00.631Z,8.98
2023-05-07T20:30:28.599Z,8.96
2023-05-07T20:32:57.649Z,8.96
2023-05-07T20:35:25.722Z,8.96
2023-05-07T20:37:53.625Z,8.95
2023-05-07T20:40:21.545Z,8.96
2023-05-07T20:42:49.594Z,8.96
2023-05-07T20:45:17.618Z,8.97
2023-05-07T20:47:45.543Z,8.98
2023-05-07T20:50:13.847Z,8.98
2023-05-07T20:52:42.590Z,8.99
2023-05-07T20:55:10.551Z,8.99
2023-05-07T20:57:38.471Z,9.00
2023-05-07T21:00:08.186Z,9.02
2023-05-07T21:02:37.079Z,9.04
2023-05-07T21:05:05.472Z,9.04
2023-05-07T21:07:33.439Z,9.02
2023-05-07T21:10:01.422Z,8.99
2023-05-07T21:12:29.263Z,8.98
2023-05-07T21:14:57.563Z,8.97
2023-05-07T21:17:25.515Z,8.98
2023-05-07T21:19:53.457Z,8.98
2023-05-07T21:22:21.473Z,9.00
2023-05-07T21:24:49.413Z,9.02
2023-05-07T21:27:17.494Z,9.01
2023-05-07T21:29:46.080Z,9.03
2023-05-07T21:32:14.068Z,9.03
2023-05-07T21:34:41.989Z,9.03
2023-05-07T21:37:09.861Z,9.03
2023-05-07T21:39:37.875Z,9.04
2023-05-07T21:42:05.843Z,9.04
2023-05-07T21:44:33.748Z,9.02
2023-05-07T21:47:01.673Z,8.99
2023-05-07T21:49:29.669Z,8.97
2023-05-07T21:51:57.659Z,8.96
2023-05-07T21:54:25.698Z,8.97
2023-05-07T21:56:53.633Z,8.98
2023-05-07T21:59:21.585Z,8.98
2023-05-07T22:01:49.623Z,8.96
2023-05-07T22:04:17.516Z,8.99
2023-05-07T22:06:45.432Z,8.98
2023-05-07T22:09:13.986Z,8.96
2023-05-07T22:11:41.906Z,8.94
2023-05-07T22:14:09.888Z,8.92
2023-05-07T22:16:37.862Z,8.89
2023-05-07T22:19:06.431Z,8.87
2023-05-07T22:21:34.374Z,8.88
2023-05-07T22:24:02.426Z,8.87
2023-05-07T22:26:30.348Z,8.86
2023-05-07T22:28:58.233Z,8.87
2023-05-07T22:31:26.401Z,8.87
2023-05-07T22:33:54.317Z,8.82
2023-05-07T22:36:22.256Z,8.75
2023-05-07T22:38:50.284Z,8.68
2023-05-07T22:41:18.279Z,8.59
2023-05-07T22:43:46.206Z,8.53
2023-05-07T22:46:14.164Z,8.49
2023-05-07T22:48:42.353Z,8.40
2023-05-07T22:51:14.661Z,8.32
2023-05-07T22:53:42.651Z,8.24
2023-05-07T22:56:10.630Z,8.16
2023-05-07T22:58:38.525Z,8.10
2023-05-07T23:01:17.507Z,8.05
2023-05-07T23:03:45.665Z,7.97
2023-05-07T23:06:13.649Z,7.90
2023-05-07T23:08:41.536Z,7.83
2023-05-07T23:11:09.508Z,7.75
2023-05-07T23:13:37.596Z,7.69
2023-05-07T23:16:05.775Z,7.62
2023-05-07T23:18:33.702Z,7.54
2023-05-07T23:21:01.775Z,7.47
2023-05-07T23:23:33.715Z,7.41
2023-05-07T23:26:01.635Z,7.34
2023-05-07T23:28:29.569Z,7.24
2023-05-07T23:30:57.572Z,7.17
2023-05-07T23:33:25.539Z,7.10
2023-05-07T23:36:04.013Z,7.05
2023-05-07T23:38:32.475Z,7.00
2023-05-07T23:41:00.667Z,6.94
2023-05-07T23:43:28.743Z,6.86
2023-05-07T23:45:56.617Z,6.83
2023-05-07T23:48:24.533Z,6.81
2023-05-07T23:50:52.537Z,6.76
2023-05-07T23:53:20.423Z,6.71
2023-05-07T23:55:48.389Z,6.67
2023-05-07T23:58:16.317Z,6.61
